sensor_id;sensor_type;location;lat;lon;timestamp;temperature;humidity
15298;DHT22;7750;48.796;9.026;2023-04-25T00:00:32;12.10;65.20
15298;DHT22;7750;48.796;9.026;2023-04-25T00:05:33;12.10;65.10
15298;DHT22;7750;48.796;9.026;2023-04-25T00:10:34;12.10;65.10
15298;DHT22;7750;48.796;9.026;2023-04-25T00:15:35;12.10;65.20
15298;DHT22;7750;48.796;9.026;2023-04-25T00:20:40;12.10;65.10
15298;DHT22;7750;48.796;9.026;2023-04-25T00:25:45;12.10;65.40
15298;DHT22;7750;48.796;9.026;2023-04-25T00:30:46;12.10;65.40
15298;DHT22;7750;48.796;9.026;2023-04-25T00:35:47;12.20;65.30
15298;DHT22;7750;48.796;9.026;2023-04-25T00:40:48;12.20;66.20
15298;DHT22;7750;48.796;9.026;2023-04-25T00:45:48;12.20;65.50
15298;DHT22;7750;48.796;9.026;2023-04-25T00:50:53;12.10;65.50
15298;DHT22;7750;48.796;9.026;2023-04-25T00:55:54;12.10;65.60
15298;DHT22;7750;48.796;9.026;2023-04-25T01:00:56;12.10;65.70
15298;DHT22;7750;48.796;9.026;2023-04-25T01:05:57;12.10;66.00
15298;DHT22;7750;48.796;9.026;2023-04-25T01:10:58;12.10;66.10
15298;DHT22;7750;48.796;9.026;2023-04-25T01:15:59;12.10;66.60
15298;DHT22;7750;48.796;9.026;2023-04-25T01:21:10;12.00;66.60
15298;DHT22;7750;48.796;9.026;2023-04-25T01:26:12;12.00;67.10
15298;DHT22;7750;48.796;9.026;2023-04-25T01:31:13;12.00;67.10
15298;DHT22;7750;48.796;9.026;2023-04-25T01:36:14;11.90;67.30
15298;DHT22;7750;48.796;9.026;2023-04-25T01:41:15;11.90;67.10
15298;DHT22;7750;48.796;9.026;2023-04-25T01:46:18;11.90;67.00
15298;DHT22;7750;48.796;9.026;2023-04-25T01:51:18;11.90;67.20
15298;DHT22;7750;48.796;9.026;2023-04-25T01:56:19;11.90;67.10
15298;DHT22;7750;48.796;9.026;2023-04-25T02:01:20;11.90;67.00
15298;DHT22;7750;48.796;9.026;2023-04-25T02:06:21;11.90;67.00
15298;DHT22;7750;48.796;9.026;2023-04-25T02:11:22;11.90;67.20
15298;DHT22;7750;48.796;9.026;2023-04-25T02:16:22;11.90;67.20
15298;DHT22;7750;48.796;9.026;2023-04-25T02:21:23;11.90;67.10
15298;DHT22;7750;48.796;9.026;2023-04-25T02:26:24;11.90;67.10
15298;DHT22;7750;48.796;9.026;2023-04-25T02:31:25;11.90;67.20
15298;DHT22;7750;48.796;9.026;2023-04-25T02:36:26;11.80;67.10
15298;DHT22;7750;48.796;9.026;2023-04-25T02:41:27;11.80;67.30
15298;DHT22;7750;48.796;9.026;2023-04-25T02:46:27;11.80;67.50
15298;DHT22;7750;48.796;9.026;2023-04-25T02:51:28;11.80;67.40
15298;DHT22;7750;48.796;9.026;2023-04-25T02:56:29;11.70;67.40
15298;DHT22;7750;48.796;9.026;2023-04-25T03:01:29;11.70;67.40
15298;DHT22;7750;48.796;9.026;2023-04-25T03:06:30;11.70;67.50
15298;DHT22;7750;48.796;9.026;2023-04-25T03:11:31;11.60;67.50
15298;DHT22;7750;48.796;9.026;2023-04-25T03:16:31;11.60;67.80
15298;DHT22;7750;48.796;9.026;2023-04-25T03:21:33;11.60;67.90
15298;DHT22;7750;48.796;9.026;2023-04-25T03:26:34;11.60;67.90
15298;DHT22;7750;48.796;9.026;2023-04-25T03:31:35;11.60;67.80
15298;DHT22;7750;48.796;9.026;2023-04-25T03:36:35;11.60;67.90
15298;DHT22;7750;48.796;9.026;2023-04-25T03:41:36;11.60;68.00
15298;DHT22;7750;48.796;9.026;2023-04-25T03:46:37;11.60;68.10
15298;DHT22;7750;48.796;9.026;2023-04-25T03:51:37;11.60;68.10
15298;DHT22;7750;48.796;9.026;2023-04-25T03:56:38;11.60;68.10
15298;DHT22;7750;48.796;9.026;2023-04-25T04:01:38;11.60;68.10
15298;DHT22;7750;48.796;9.026;2023-04-25T04:06:39;11.60;68.20
15298;DHT22;7750;48.796;9.026;2023-04-25T04:11:40;11.70;68.20
15298;DHT22;7750;48.796;9.026;2023-04-25T04:16:41;11.60;68.40
15298;DHT22;7750;48.796;9.026;2023-04-25T04:21:41;11.60;68.40
15298;DHT22;7750;48.796;9.026;2023-04-25T04:26:42;11.50;68.30
15298;DHT22;7750;48.796;9.026;2023-04-25T04:31:45;11.50;68.50
15298;DHT22;7750;48.796;9.026;2023-04-25T04:36:46;11.50;68.80
15298;DHT22;7750;48.796;9.026;2023-04-25T04:41:47;11.40;68.90
15298;DHT22;7750;48.796;9.026;2023-04-25T04:46:47;11.50;69.00
15298;DHT22;7750;48.796;9.026;2023-04-25T04:51:48;11.50;69.00
15298;DHT22;7750;48.796;9.026;2023-04-25T04:56:50;11.50;69.20
15298;DHT22;7750;48.796;9.026;2023-04-25T05:01:52;11.50;69.30
15298;DHT22;7750;48.796;9.026;2023-04-25T05:06:53;11.50;69.20
15298;DHT22;7750;48.796;9.026;2023-04-25T05:11:54;11.50;69.40
15298;DHT22;7750;48.796;9.026;2023-04-25T05:16:54;11.60;69.40
15298;DHT22;7750;48.796;9.026;2023-04-25T05:21:55;11.60;69.50
15298;DHT22;7750;48.796;9.026;2023-04-25T05:26:56;11.60;69.50
15298;DHT22;7750;48.796;9.026;2023-04-25T05:31:56;11.60;69.60
15298;DHT22;7750;48.796;9.026;2023-04-25T05:36:57;11.60;69.50
15298;DHT22;7750;48.796;9.026;2023-04-25T05:41:57;11.60;69.60
15298;DHT22;7750;48.796;9.026;2023-04-25T05:46:58;11.60;69.20
15298;DHT22;7750;48.796;9.026;2023-04-25T05:51:59;11.60;69.10
15298;DHT22;7750;48.796;9.026;2023-04-25T05:56:59;11.60;69.80
15298;DHT22;7750;48.796;9.026;2023-04-25T06:02:00;11.60;69.40
15298;DHT22;7750;48.796;9.026;2023-04-25T06:07:01;11.60;69.40
15298;DHT22;7750;48.796;9.026;2023-04-25T06:12:01;11.60;69.20
15298;DHT22;7750;48.796;9.026;2023-04-25T06:17:03;11.50;68.60
15298;DHT22;7750;48.796;9.026;2023-04-25T06:22:07;11.50;68.50
15298;DHT22;7750;48.796;9.026;2023-04-25T06:27:08;11.50;69.00
15298;DHT22;7750;48.796;9.026;2023-04-25T06:32:08;11.50;69.00
15298;DHT22;7750;48.796;9.026;2023-04-25T06:37:09;11.60;69.10
15298;DHT22;7750;48.796;9.026;2023-04-25T06:42:10;11.60;69.00
15298;DHT22;7750;48.796;9.026;2023-04-25T06:47:11;11.60;69.00
15298;DHT22;7750;48.796;9.026;2023-04-25T06:52:11;11.60;69.20
15298;DHT22;7750;48.796;9.026;2023-04-25T06:57:12;11.60;69.30
15298;DHT22;7750;48.796;9.026;2023-04-25T07:02:13;11.70;69.60
15298;DHT22;7750;48.796;9.026;2023-04-25T07:07:14;11.70;70.20
15298;DHT22;7750;48.796;9.026;2023-04-25T07:12:14;11.60;70.50
15298;DHT22;7750;48.796;9.026;2023-04-25T07:17:15;11.60;70.60
15298;DHT22;7750;48.796;9.026;2023-04-25T07:22:16;11.60;71.30
15298;DHT22;7750;48.796;9.026;2023-04-25T07:27:19;11.50;71.40
15298;DHT22;7750;48.796;9.026;2023-04-25T07:32:19;11.50;71.80
15298;DHT22;7750;48.796;9.026;2023-04-25T07:37:20;11.40;71.90
15298;DHT22;7750;48.796;9.026;2023-04-25T07:42:24;11.40;71.70
15298;DHT22;7750;48.796;9.026;2023-04-25T07:47:25;11.50;72.10
15298;DHT22;7750;48.796;9.026;2023-04-25T07:52:25;11.40;72.30
15298;DHT22;7750;48.796;9.026;2023-04-25T07:57:26;11.50;72.20
15298;DHT22;7750;48.796;9.026;2023-04-25T08:02:27;11.50;72.60
15298;DHT22;7750;48.796;9.026;2023-04-25T08:07:28;11.50;72.60
15298;DHT22;7750;48.796;9.026;2023-04-25T08:12:29;11.40;72.90
15298;DHT22;7750;48.796;9.026;2023-04-25T08:17:29;11.40;72.60
15298;DHT22;7750;48.796;9.026;2023-04-25T08:22:30;11.50;72.70
15298;DHT22;7750;48.796;9.026;2023-04-25T08:27:31;11.40;72.80
15298;DHT22;7750;48.796;9.026;2023-04-25T08:32:31;11.40;73.00
15298;DHT22;7750;48.796;9.026;2023-04-25T08:37:34;11.40;73.40
15298;DHT22;7750;48.796;9.026;2023-04-25T08:42:34;11.40;73.50
15298;DHT22;7750;48.796;9.026;2023-04-25T08:47:37;11.40;73.80
15298;DHT22;7750;48.796;9.026;2023-04-25T08:52:45;11.40;73.40
15298;DHT22;7750;48.796;9.026;2023-04-25T08:57:49;11.40;73.80
15298;DHT22;7750;48.796;9.026;2023-04-25T09:02:50;11.40;74.60
15298;DHT22;7750;48.796;9.026;2023-04-25T09:07:51;11.40;74.40
15298;DHT22;7750;48.796;9.026;2023-04-25T09:18:25;11.40;74.60
15298;DHT22;7750;48.796;9.026;2023-04-25T09:23:26;11.30;75.50
15298;DHT22;7750;48.796;9.026;2023-04-25T09:28:27;11.30;75.90
15298;DHT22;7750;48.796;9.026;2023-04-25T09:33:30;11.30;76.30
15298;DHT22;7750;48.796;9.026;2023-04-25T09:38:32;11.30;76.80
15298;DHT22;7750;48.796;9.026;2023-04-25T09:43:45;11.20;76.80
15298;DHT22;7750;48.796;9.026;2023-04-25T09:48:50;11.10;76.60
15298;DHT22;7750;48.796;9.026;2023-04-25T09:53:51;11.10;76.80
15298;DHT22;7750;48.796;9.026;2023-04-25T09:58:53;11.10;75.70
15298;DHT22;7750;48.796;9.026;2023-04-25T10:03:56;11.00;75.80
15298;DHT22;7750;48.796;9.026;2023-04-25T10:08:58;11.00;76.80
15298;DHT22;7750;48.796;9.026;2023-04-25T10:14:00;11.00;77.00
15298;DHT22;7750;48.796;9.026;2023-04-25T10:19:01;10.90;76.70
15298;DHT22;7750;48.796;9.026;2023-04-25T10:24:02;10.90;76.70
15298;DHT22;7750;48.796;9.026;2023-04-25T10:29:09;10.80;77.20
15298;DHT22;7750;48.796;9.026;2023-04-25T10:34:24;10.80;77.30
15298;DHT22;7750;48.796;9.026;2023-04-25T10:39:27;10.80;77.50
15298;DHT22;7750;48.796;9.026;2023-04-25T10:44:31;10.80;77.50
15298;DHT22;7750;48.796;9.026;2023-04-25T10:49:37;10.90;77.50
15298;DHT22;7750;48.796;9.026;2023-04-25T10:54:51;10.90;77.10
15298;DHT22;7750;48.796;9.026;2023-04-25T10:59:52;11.00;77.30
15298;DHT22;7750;48.796;9.026;2023-04-25T11:04:53;11.00;76.90
15298;DHT22;7750;48.796;9.026;2023-04-25T11:09:54;11.10;76.80
15298;DHT22;7750;48.796;9.026;2023-04-25T11:15:03;11.10;76.80
15298;DHT22;7750;48.796;9.026;2023-04-25T11:20:04;11.30;77.20
15298;DHT22;7750;48.796;9.026;2023-04-25T11:25:10;11.30;76.70
15298;DHT22;7750;48.796;9.026;2023-04-25T11:30:12;11.40;75.90
15298;DHT22;7750;48.796;9.026;2023-04-25T11:35:13;11.40;75.70
15298;DHT22;7750;48.796;9.026;2023-04-25T11:40:14;11.40;75.90
15298;DHT22;7750;48.796;9.026;2023-04-25T11:45:15;11.50;75.60
15298;DHT22;7750;48.796;9.026;2023-04-25T11:50:16;11.50;76.10
15298;DHT22;7750;48.796;9.026;2023-04-25T11:55:19;11.40;76.10
15298;DHT22;7750;48.796;9.026;2023-04-25T12:00:21;11.40;76.20
15298;DHT22;7750;48.796;9.026;2023-04-25T12:05:28;11.40;76.30
15298;DHT22;7750;48.796;9.026;2023-04-25T12:10:29;11.40;76.20
15298;DHT22;7750;48.796;9.026;2023-04-25T12:15:29;11.40;76.60
15298;DHT22;7750;48.796;9.026;2023-04-25T12:20:31;11.40;75.40
15298;DHT22;7750;48.796;9.026;2023-04-25T12:25:43;11.40;76.00
15298;DHT22;7750;48.796;9.026;2023-04-25T12:31:06;11.50;76.60
15298;DHT22;7750;48.796;9.026;2023-04-25T12:36:09;11.60;76.00
15298;DHT22;7750;48.796;9.026;2023-04-25T12:41:12;11.60;75.30
15298;DHT22;7750;48.796;9.026;2023-04-25T12:46:15;11.60;75.70
15298;DHT22;7750;48.796;9.026;2023-04-25T12:51:16;11.80;76.40
15298;DHT22;7750;48.796;9.026;2023-04-25T12:56:17;11.80;76.50
15298;DHT22;7750;48.796;9.026;2023-04-25T13:01:20;12.00;77.90
15298;DHT22;7750;48.796;9.026;2023-04-25T13:22:46;12.70;76.70
15298;DHT22;7750;48.796;9.026;2023-04-25T13:27:55;12.80;74.60
15298;DHT22;7750;48.796;9.026;2023-04-25T13:38:51;12.70;74.40
15298;DHT22;7750;48.796;9.026;2023-04-25T13:54:30;12.90;75.80
15298;DHT22;7750;48.796;9.026;2023-04-25T13:59:43;13.10;75.90
15298;DHT22;7750;48.796;9.026;2023-04-25T14:04:46;13.40;74.20
15298;DHT22;7750;48.796;9.026;2023-04-25T14:09:53;13.60;72.70
15298;DHT22;7750;48.796;9.026;2023-04-25T14:14:53;13.70;72.90
15298;DHT22;7750;48.796;9.026;2023-04-25T14:19:54;13.80;72.00
15298;DHT22;7750;48.796;9.026;2023-04-25T14:24:55;13.80;70.40
15298;DHT22;7750;48.796;9.026;2023-04-25T14:29:55;13.70;71.00
15298;DHT22;7750;48.796;9.026;2023-04-25T14:34:56;13.70;71.70
15298;DHT22;7750;48.796;9.026;2023-04-25T14:39:57;13.70;71.60
15298;DHT22;7750;48.796;9.026;2023-04-25T14:44:57;13.80;70.90
15298;DHT22;7750;48.796;9.026;2023-04-25T14:49:58;13.90;70.40
15298;DHT22;7750;48.796;9.026;2023-04-25T14:54:59;13.90;70.40
15298;DHT22;7750;48.796;9.026;2023-04-25T15:00:05;14.00;70.80
15298;DHT22;7750;48.796;9.026;2023-04-25T15:05:09;14.20;70.20
15298;DHT22;7750;48.796;9.026;2023-04-25T15:42:31;14.80;67.30
15298;DHT22;7750;48.796;9.026;2023-04-25T15:47:58;14.80;65.10
15298;DHT22;7750;48.796;9.026;2023-04-25T15:53:37;14.80;65.20
15298;DHT22;7750;48.796;9.026;2023-04-25T15:58:39;14.80;65.90
15298;DHT22;7750;48.796;9.026;2023-04-25T16:09:47;14.60;66.40
15298;DHT22;7750;48.796;9.026;2023-04-25T16:15:17;14.50;66.10
15298;DHT22;7750;48.796;9.026;2023-04-25T16:42:10;14.30;64.70
15298;DHT22;7750;48.796;9.026;2023-04-25T16:47:11;14.20;65.30
15298;DHT22;7750;48.796;9.026;2023-04-25T16:52:20;14.10;65.20
15298;DHT22;7750;48.796;9.026;2023-04-25T16:57:23;14.10;64.70
15298;DHT22;7750;48.796;9.026;2023-04-25T17:02:29;14.00;65.50
15298;DHT22;7750;48.796;9.026;2023-04-25T17:19:36;13.80;66.70
15298;DHT22;7750;48.796;9.026;2023-04-25T17:24:58;13.70;66.40
15298;DHT22;7750;48.796;9.026;2023-04-25T17:30:15;13.70;66.60
15298;DHT22;7750;48.796;9.026;2023-04-25T17:35:19;13.60;66.40
15298;DHT22;7750;48.796;9.026;2023-04-25T17:40:20;13.50;66.90
15298;DHT22;7750;48.796;9.026;2023-04-25T17:45:21;13.30;67.60
15298;DHT22;7750;48.796;9.026;2023-04-25T17:50:22;13.20;67.90
15298;DHT22;7750;48.796;9.026;2023-04-25T17:55:23;13.00;68.50
15298;DHT22;7750;48.796;9.026;2023-04-25T18:00:24;12.80;68.90
15298;DHT22;7750;48.796;9.026;2023-04-25T18:05:24;12.70;69.30
15298;DHT22;7750;48.796;9.026;2023-04-25T18:10:26;12.60;69.50
15298;DHT22;7750;48.796;9.026;2023-04-25T18:15:27;12.50;70.70
15298;DHT22;7750;48.796;9.026;2023-04-25T18:20:28;12.40;70.40
15298;DHT22;7750;48.796;9.026;2023-04-25T18:25:28;12.40;69.70
15298;DHT22;7750;48.796;9.026;2023-04-25T18:30:29;12.40;70.00
15298;DHT22;7750;48.796;9.026;2023-04-25T18:35:30;12.40;70.40
15298;DHT22;7750;48.796;9.026;2023-04-25T18:40:31;12.30;71.00
15298;DHT22;7750;48.796;9.026;2023-04-25T18:45:31;12.30;71.00
15298;DHT22;7750;48.796;9.026;2023-04-25T18:50:32;12.30;71.30
15298;DHT22;7750;48.796;9.026;2023-04-25T18:55:33;12.30;71.80
15298;DHT22;7750;48.796;9.026;2023-04-25T19:00:34;12.30;71.80
15298;DHT22;7750;48.796;9.026;2023-04-25T19:05:34;12.20;71.80
15298;DHT22;7750;48.796;9.026;2023-04-25T19:10:35;12.20;71.70
15298;DHT22;7750;48.796;9.026;2023-04-25T19:15:36;12.20;72.00
15298;DHT22;7750;48.796;9.026;2023-04-25T19:20:39;12.10;72.20
15298;DHT22;7750;48.796;9.026;2023-04-25T19:25:51;12.10;72.60
15298;DHT22;7750;48.796;9.026;2023-04-25T19:30:58;12.50;73.10
15298;DHT22;7750;48.796;9.026;2023-04-25T19:35:59;12.30;73.00
15298;DHT22;7750;48.796;9.026;2023-04-25T19:41:03;12.20;72.70
15298;DHT22;7750;48.796;9.026;2023-04-25T19:46:26;12.20;72.60
15298;DHT22;7750;48.796;9.026;2023-04-25T19:51:38;12.20;72.30
15298;DHT22;7750;48.796;9.026;2023-04-25T19:56:59;12.10;72.50
15298;DHT22;7750;48.796;9.026;2023-04-25T20:02:20;12.00;72.80
15298;DHT22;7750;48.796;9.026;2023-04-25T20:07:21;11.90;72.50
15298;DHT22;7750;48.796;9.026;2023-04-25T20:12:22;11.80;72.70
15298;DHT22;7750;48.796;9.026;2023-04-25T20:17:24;11.80;73.00
15298;DHT22;7750;48.796;9.026;2023-04-25T20:22:25;11.70;73.10
15298;DHT22;7750;48.796;9.026;2023-04-25T20:27:30;11.70;73.50
15298;DHT22;7750;48.796;9.026;2023-04-25T20:32:31;11.70;73.90
15298;DHT22;7750;48.796;9.026;2023-04-25T20:37:32;11.70;73.80
15298;DHT22;7750;48.796;9.026;2023-04-25T20:42:34;11.80;74.00
15298;DHT22;7750;48.796;9.026;2023-04-25T20:47:35;11.80;74.00
15298;DHT22;7750;48.796;9.026;2023-04-25T20:52:36;11.80;73.90
15298;DHT22;7750;48.796;9.026;2023-04-25T20:57:40;11.80;74.10
15298;DHT22;7750;48.796;9.026;2023-04-25T21:02:41;11.80;74.20
15298;DHT22;7750;48.796;9.026;2023-04-25T21:07:42;11.80;74.20
15298;DHT22;7750;48.796;9.026;2023-04-25T21:12:43;11.80;74.20
15298;DHT22;7750;48.796;9.026;2023-04-25T21:17:49;11.80;74.10
15298;DHT22;7750;48.796;9.026;2023-04-25T21:22:50;11.80;74.30
15298;DHT22;7750;48.796;9.026;2023-04-25T21:27:51;11.80;74.50
15298;DHT22;7750;48.796;9.026;2023-04-25T21:32:52;11.80;74.50
15298;DHT22;7750;48.796;9.026;2023-04-25T21:37:54;11.70;74.40
15298;DHT22;7750;48.796;9.026;2023-04-25T21:42:55;11.70;74.40
15298;DHT22;7750;48.796;9.026;2023-04-25T21:47:56;11.70;74.40
15298;DHT22;7750;48.796;9.026;2023-04-25T21:52:56;11.60;74.50
15298;DHT22;7750;48.796;9.026;2023-04-25T21:57:58;11.60;74.60
15298;DHT22;7750;48.796;9.026;2023-04-25T22:02:59;11.60;74.80
15298;DHT22;7750;48.796;9.026;2023-04-25T22:07:59;11.60;75.00
15298;DHT22;7750;48.796;9.026;2023-04-25T22:13:00;11.50;74.90
15298;DHT22;7750;48.796;9.026;2023-04-25T22:18:00;11.50;75.00
